Stadskanaal Airfield

EHST · Groningen, 荷兰

罗盘
风向 的 风向 010° Stadskanaal Airfield 6/24
风: 4 kt, 2 beaufort

3 kt

3 kt
改变
0 1.000 2.000 3.000 4.000 5.000
N/A
SPECI ETWM 010320Z AUTO 01004KT //// // ////// 05/04 Q1027 ///

METAR Stadskanaal Airfield - EHST

Stadskanaal Airfield是,荷兰中的小机场。 该机场有一条跑道: 6/24. 该领域的国际民航组织标志是EHST.

这份报告是针对2022年12月1日 04:20, 当地时间在Meppen Air Base进行的。

机场观察

风向为010°,速度为4 kt。

温度为5 °C,阵风为2 °C。 露点为4 °C,相对湿度为93%。 海平面上的气压为1027 hPa (QNH)。

白天

今天,太阳从08:22升起,在16:19降落。 这适用于Stadskanaal Airfield,世界夏令时可能有所不同。 当地时间与世界标准时间之间的时差为+1 小时。 当前,没有夏令时有效。

公司介绍

我们没有关于这个机场的公司信息。

体会

到Vliegles.nl去找飞行课程,跳伞和其他飞行体验。 浏览页面,了解Stadskanaal Airfield附近所有可用的活动。 你也可以使用搜索功能来寻找你所在地附近的特定飞行课程、跳伞或其他飞行体验。

跑道

Id 标题 侧风 逆风 侧风 %
6/24 058°-238° 3 kt 3 kt 74 %

逆风成分最大的方向会被突出显示,并用于横风计算。 这并不一定意味着这个方向在使用。

乌云

0 ft

温度 & 天气

温度 5 °C
露点 4 °C
相对湿度 93%
风寒 2 °C
Kp-index 3 (0-9)

白天

日出
08:19 (2:50)
中午
12:19
日落
16:19

小工具

你想在你的网站上有一个关于Stadskanaal Airfield的当前航空天气(METAR)的小部件吗?

显示HTML代码

我们和第三方通过cookies跟踪您在我们网站上的互联网行为。如果你继续,我们认为你同意我们的饼干政策